createdAt,value
2022-11-25T00:00:30.915Z,64.15
2022-11-25T00:01:30.905Z,63.97
2022-11-25T00:02:31.090Z,63.74
2022-11-25T00:04:30.913Z,63.52
2022-11-25T00:05:30.949Z,63.74
2022-11-25T00:06:30.937Z,63.79
2022-11-25T00:07:31.033Z,63.83
2022-11-25T00:08:30.940Z,63.94
2022-11-25T00:09:30.945Z,64.27
2022-11-25T00:10:30.903Z,64.27
2022-11-25T00:11:30.913Z,64.57
2022-11-25T00:12:30.940Z,64.60
2022-11-25T00:13:30.901Z,64.56
2022-11-25T00:14:30.903Z,64.52
2022-11-25T00:15:30.936Z,64.23
2022-11-25T00:16:30.976Z,64.23
2022-11-25T00:17:30.989Z,64.03
2022-11-25T00:18:30.927Z,64.03
2022-11-25T00:19:30.914Z,63.91
2022-11-25T00:20:30.951Z,63.68
2022-11-25T00:21:30.969Z,63.68
2022-11-25T00:22:30.925Z,63.67
2022-11-25T00:23:33.264Z,63.73
2022-11-25T00:24:30.970Z,63.59
2022-11-25T00:26:30.999Z,63.78
2022-11-25T00:28:31.005Z,63.91
2022-11-25T00:31:31.007Z,63.70
2022-11-25T00:32:30.988Z,63.70
2022-11-25T00:33:31.029Z,63.92
2022-11-25T00:34:30.961Z,63.92
2022-11-25T00:35:30.996Z,63.83
2022-11-25T00:36:30.962Z,63.83
2022-11-25T00:37:30.981Z,63.82
2022-11-25T00:38:31.036Z,63.77
2022-11-25T00:39:31.003Z,63.77
2022-11-25T00:40:31.043Z,63.51
2022-11-25T00:41:30.977Z,63.41
2022-11-25T00:42:31.012Z,63.41
2022-11-25T00:43:31.037Z,63.62
2022-11-25T00:44:31.016Z,63.62
2022-11-25T00:45:31.099Z,63.64
2022-11-25T00:46:30.979Z,63.86
2022-11-25T00:47:30.984Z,63.86
2022-11-25T00:48:31.020Z,63.96
2022-11-25T00:49:30.993Z,63.96
2022-11-25T00:50:31.056Z,63.73
2022-11-25T00:51:31.007Z,63.52
2022-11-25T00:52:31.004Z,63.52
2022-11-25T00:53:31.043Z,63.41
2022-11-25T00:54:30.994Z,63.41
2022-11-25T00:55:31.069Z,63.11
2022-11-25T00:56:31.020Z,62.92
2022-11-25T00:57:31.022Z,62.90
2022-11-25T00:58:31.065Z,62.85
2022-11-25T00:59:31.012Z,62.85
2022-11-25T01:00:31.011Z,62.63
2022-11-25T01:01:31.094Z,62.53
2022-11-25T01:02:31.087Z,62.47
2022-11-25T01:04:31.079Z,62.18
2022-11-25T01:05:31.040Z,62.23
2022-11-25T01:06:31.073Z,62.28
2022-11-25T01:07:31.116Z,62.37
2022-11-25T01:08:31.068Z,62.44
2022-11-25T01:10:31.052Z,62.43
2022-11-25T01:11:31.137Z,62.43
2022-11-25T01:12:31.048Z,62.23
2022-11-25T01:13:31.036Z,62.23
2022-11-25T01:14:31.062Z,62.02
2022-11-25T01:15:31.046Z,61.98
2022-11-25T01:16:31.280Z,61.93
2022-11-25T01:17:31.053Z,62.04
2022-11-25T01:18:31.098Z,62.21
2022-11-25T01:19:31.059Z,62.21
2022-11-25T01:20:31.113Z,62.25
2022-11-25T01:21:31.113Z,62.45
2022-11-25T01:22:31.135Z,62.45
2022-11-25T01:23:31.102Z,62.30
2022-11-25T01:24:31.084Z,62.30
2022-11-25T01:25:31.110Z,62.26
2022-11-25T01:26:31.156Z,62.33
2022-11-25T01:27:31.085Z,62.33
2022-11-25T01:28:31.146Z,62.26
2022-11-25T01:29:31.081Z,62.26
2022-11-25T01:30:31.120Z,62.28
2022-11-25T01:31:31.241Z,62.52
2022-11-25T01:32:31.131Z,62.52
2022-11-25T01:33:31.119Z,62.63
2022-11-25T01:34:31.169Z,62.85
2022-11-25T01:35:31.133Z,62.90
2022-11-25T01:36:31.133Z,63.00
2022-11-25T01:37:31.142Z,63.08
2022-11-25T01:38:31.179Z,62.91
2022-11-25T01:39:33.099Z,62.86
2022-11-25T01:40:31.177Z,62.84
2022-11-25T01:41:31.189Z,62.69
2022-11-25T01:42:31.176Z,62.67
2022-11-25T01:44:31.208Z,62.53
2022-11-25T01:47:31.173Z,62.49
2022-11-25T01:49:31.202Z,62.51
2022-11-25T01:50:31.135Z,62.62
2022-11-25T01:51:31.137Z,62.62
2022-11-25T01:52:31.160Z,62.71
2022-11-25T01:53:31.184Z,62.67
2022-11-25T01:54:31.211Z,62.57
2022-11-25T01:55:31.191Z,62.53
2022-11-25T01:56:31.236Z,62.58
2022-11-25T01:57:31.150Z,62.84
2022-11-25T01:58:31.157Z,62.97
2022-11-25T01:59:31.225Z,63.22
2022-11-25T02:00:31.157Z,63.22
2022-11-25T02:01:31.310Z,63.29
2022-11-25T02:02:31.346Z,63.42
2022-11-25T02:03:31.226Z,63.44
2022-11-25T02:04:31.190Z,63.59
2022-11-25T02:05:33.950Z,63.85
2022-11-25T02:06:31.170Z,63.85
2022-11-25T02:08:31.231Z,63.44
2022-11-25T02:09:31.218Z,63.46
2022-11-25T02:10:31.216Z,63.40
2022-11-25T02:11:31.244Z,63.42
2022-11-25T02:12:31.218Z,63.33
2022-11-25T02:13:31.205Z,63.12
2022-11-25T02:14:31.272Z,62.99
2022-11-25T02:15:31.215Z,62.99
2022-11-25T02:16:31.218Z,62.89
2022-11-25T02:17:31.282Z,62.62
2022-11-25T02:18:31.244Z,62.80
2022-11-25T02:19:31.253Z,62.80
2022-11-25T02:20:31.233Z,63.25
2022-11-25T02:22:31.280Z,63.39
2022-11-25T02:23:31.255Z,63.39
2022-11-25T02:24:31.247Z,63.11
2022-11-25T02:26:31.259Z,63.16
2022-11-25T02:27:31.287Z,63.19
2022-11-25T02:28:31.263Z,63.04
2022-11-25T02:30:31.477Z,62.91
2022-11-25T02:31:31.321Z,62.91
2022-11-25T02:32:31.267Z,62.73
2022-11-25T02:33:31.260Z,62.67
2022-11-25T02:35:31.317Z,62.44
2022-11-25T02:36:31.295Z,62.44
2022-11-25T02:37:31.317Z,62.66
2022-11-25T02:38:31.283Z,62.66
2022-11-25T02:39:31.251Z,62.74
2022-11-25T02:40:31.322Z,62.68
2022-11-25T02:41:31.260Z,62.68
2022-11-25T02:42:31.321Z,62.55
2022-11-25T02:43:31.310Z,62.55
2022-11-25T02:45:31.357Z,62.50
2022-11-25T02:46:31.265Z,62.50
2022-11-25T02:48:53.213Z,62.50
2022-11-25T02:49:31.324Z,62.62
2022-11-25T02:50:31.363Z,62.62
2022-11-25T02:51:31.318Z,62.63
2022-11-25T02:52:31.553Z,62.84
2022-11-25T02:53:31.311Z,63.40
2022-11-25T02:54:31.310Z,63.73
2022-11-25T02:55:31.383Z,63.97
2022-11-25T02:56:31.355Z,63.97
2022-11-25T02:57:31.329Z,65.00
2022-11-25T02:58:31.339Z,66.59
2022-11-25T02:59:31.295Z,66.59
2022-11-25T03:00:31.334Z,67.75
2022-11-25T03:02:31.430Z,68.04
2022-11-25T03:04:31.354Z,68.26
2022-11-25T03:06:31.320Z,68.35
2022-11-25T03:07:31.451Z,68.35
2022-11-25T03:08:31.368Z,68.56
2022-11-25T03:09:31.346Z,68.56
2022-11-25T03:10:31.369Z,68.60
2022-11-25T03:11:31.372Z,68.81
2022-11-25T03:12:31.402Z,68.30
2022-11-25T03:13:31.397Z,68.10
2022-11-25T03:14:31.340Z,68.10
2022-11-25T03:15:31.419Z,67.01
2022-11-25T03:16:31.395Z,67.01
2022-11-25T03:17:31.378Z,66.12
2022-11-25T03:18:31.411Z,65.39
2022-11-25T03:19:31.390Z,64.76
2022-11-25T03:20:31.365Z,64.68
2022-11-25T03:21:31.355Z,64.68
2022-11-25T03:22:31.393Z,64.38
2022-11-25T03:23:31.430Z,64.43
2022-11-25T03:24:31.395Z,64.43
2022-11-25T03:25:31.409Z,64.51
2022-11-25T03:26:31.438Z,64.36
2022-11-25T03:27:31.415Z,64.36
2022-11-25T03:28:31.437Z,64.40
2022-11-25T03:29:31.384Z,64.39
2022-11-25T03:30:32.703Z,64.28
2022-11-25T03:31:31.466Z,64.10
2022-11-25T03:32:31.435Z,64.10
2022-11-25T03:34:31.429Z,64.02
2022-11-25T03:35:31.447Z,63.95
2022-11-25T03:36:31.525Z,63.88
2022-11-25T03:37:31.426Z,63.88
2022-11-25T03:38:31.467Z,65.03
2022-11-25T03:40:31.448Z,65.13
2022-11-25T03:41:31.491Z,65.05
2022-11-25T03:42:31.399Z,65.05
2022-11-25T03:43:31.425Z,64.63
2022-11-25T03:44:31.416Z,64.63
2022-11-25T03:45:31.525Z,64.08
2022-11-25T03:46:31.478Z,64.00
2022-11-25T03:47:31.445Z,64.00
2022-11-25T03:48:31.457Z,63.90
2022-11-25T03:49:31.464Z,63.75
2022-11-25T03:50:31.463Z,63.65
2022-11-25T03:51:31.494Z,63.38
2022-11-25T03:52:31.463Z,63.38
2022-11-25T03:53:31.481Z,63.10
2022-11-25T03:54:31.495Z,63.10
2022-11-25T03:55:31.472Z,63.13
2022-11-25T03:56:31.503Z,63.17
2022-11-25T03:57:31.486Z,63.17
2022-11-25T03:59:31.437Z,62.93
2022-11-25T04:00:31.478Z,62.95
2022-11-25T04:01:31.543Z,62.84
2022-11-25T04:02:31.508Z,62.84
2022-11-25T04:03:31.492Z,62.80
2022-11-25T04:04:31.520Z,62.59
2022-11-25T04:05:31.511Z,62.59
2022-11-25T04:06:31.542Z,62.82
2022-11-25T04:09:31.547Z,62.81
2022-11-25T04:11:31.562Z,62.75
2022-11-25T04:12:31.512Z,62.75
2022-11-25T04:13:31.515Z,62.92
2022-11-25T04:15:31.532Z,62.91
2022-11-25T04:16:31.615Z,62.90
2022-11-25T04:17:31.506Z,62.90
2022-11-25T04:18:31.499Z,63.08
2022-11-25T04:19:31.539Z,63.12
2022-11-25T04:20:31.527Z,62.88
2022-11-25T04:21:31.528Z,62.89
2022-11-25T04:22:31.504Z,62.89
2022-11-25T04:23:31.553Z,63.03
2022-11-25T04:24:31.570Z,63.03
2022-11-25T04:25:31.559Z,62.83
2022-11-25T04:26:31.580Z,62.90
2022-11-25T04:27:31.558Z,62.90
2022-11-25T04:28:31.526Z,62.71
2022-11-25T04:29:31.549Z,62.52
2022-11-25T04:30:31.565Z,62.52
2022-11-25T04:31:31.573Z,62.43
2022-11-25T04:32:31.603Z,62.43
2022-11-25T04:33:31.525Z,62.42
2022-11-25T04:34:31.559Z,62.47
2022-11-25T04:37:31.591Z,62.46
2022-11-25T04:38:31.521Z,62.46
2022-11-25T04:39:31.609Z,62.25
2022-11-25T04:41:31.580Z,62.21
2022-11-25T04:42:31.667Z,62.47
2022-11-25T04:43:31.592Z,62.23
2022-11-25T04:44:31.631Z,62.37
2022-11-25T04:45:51.563Z,62.49
2022-11-25T04:46:31.671Z,62.49
2022-11-25T04:47:31.624Z,62.36
2022-11-25T04:49:31.666Z,62.25
2022-11-25T04:50:31.620Z,62.14
2022-11-25T04:51:31.625Z,62.14
2022-11-25T04:52:31.612Z,62.15
2022-11-25T04:53:31.616Z,62.15
2022-11-25T04:54:31.620Z,62.22
2022-11-25T04:55:31.629Z,62.46
2022-11-25T04:57:31.623Z,62.48
2022-11-25T04:58:31.605Z,62.32
2022-11-25T04:59:31.605Z,62.52
2022-11-25T05:00:31.594Z,62.52
2022-11-25T05:01:31.715Z,62.55
2022-11-25T05:02:31.719Z,63.02
2022-11-25T05:03:31.593Z,63.02
2022-11-25T05:04:33.245Z,63.53
2022-11-25T05:05:31.668Z,63.50
2022-11-25T05:06:31.644Z,63.50
2022-11-25T05:07:31.700Z,63.34
2022-11-25T05:08:31.653Z,63.24
2022-11-25T05:09:31.628Z,63.15
2022-11-25T05:10:31.712Z,62.99
2022-11-25T05:11:31.646Z,62.99
2022-11-25T05:12:31.664Z,62.89
2022-11-25T05:13:31.636Z,62.72
2022-11-25T05:14:31.663Z,62.56
2022-11-25T05:15:31.680Z,62.59
2022-11-25T05:16:31.739Z,62.59
2022-11-25T05:17:31.705Z,62.78
2022-11-25T05:18:31.678Z,62.79
2022-11-25T05:19:31.669Z,62.79
2022-11-25T05:20:31.720Z,62.85
2022-11-25T05:21:31.688Z,62.85
2022-11-25T05:22:31.721Z,62.83
2022-11-25T05:23:31.666Z,62.94
2022-11-25T05:24:31.663Z,62.94
2022-11-25T05:25:31.737Z,62.91
2022-11-25T05:26:31.714Z,62.82
2022-11-25T05:28:31.728Z,62.86
2022-11-25T05:29:31.717Z,62.86
2022-11-25T05:30:31.763Z,62.81
2022-11-25T05:31:31.700Z,62.81
2022-11-25T05:32:31.910Z,62.20
2022-11-25T05:33:31.704Z,61.91
2022-11-25T05:34:31.713Z,61.91
2022-11-25T05:35:31.715Z,62.11
2022-11-25T05:36:31.716Z,62.17
2022-11-25T05:37:31.710Z,62.17
2022-11-25T05:38:31.785Z,62.17
2022-11-25T05:39:31.725Z,62.17
2022-11-25T05:40:32.323Z,62.05
2022-11-25T05:41:31.726Z,61.94
2022-11-25T05:42:31.690Z,61.94
2022-11-25T05:43:31.801Z,61.72
2022-11-25T05:44:31.694Z,61.72
2022-11-25T05:45:31.730Z,61.60
2022-11-25T05:47:31.720Z,61.88
2022-11-25T05:48:31.773Z,61.97
2022-11-25T05:49:31.769Z,61.94
2022-11-25T05:50:31.709Z,61.94
2022-11-25T05:51:31.778Z,61.84
2022-11-25T05:52:31.720Z,61.84
2022-11-25T05:53:31.786Z,61.80
2022-11-25T05:54:31.784Z,61.80
2022-11-25T05:55:31.762Z,61.75
2022-11-25T05:56:31.812Z,61.70
2022-11-25T05:58:31.764Z,61.69
2022-11-25T06:00:31.791Z,61.68
2022-11-25T06:01:31.816Z,61.63
2022-11-25T06:03:31.855Z,61.65
2022-11-25T06:05:31.755Z,61.72
2022-11-25T06:06:31.834Z,61.69
2022-11-25T06:07:31.791Z,61.69
2022-11-25T06:08:31.800Z,61.36
2022-11-25T06:09:31.805Z,61.43
2022-11-25T06:11:31.836Z,61.39
2022-11-25T06:12:31.826Z,61.39
2022-11-25T06:13:31.811Z,61.50
2022-11-25T06:14:31.850Z,61.60
2022-11-25T06:15:31.821Z,61.62
2022-11-25T06:16:31.847Z,61.78
2022-11-25T06:17:31.803Z,61.85
2022-11-25T06:18:31.836Z,61.87
2022-11-25T06:19:31.810Z,61.85
2022-11-25T06:20:31.837Z,61.95
2022-11-25T06:21:31.860Z,62.04
2022-11-25T06:22:31.824Z,62.23
2022-11-25T06:23:31.809Z,62.29
2022-11-25T06:25:31.807Z,62.45
2022-11-25T06:27:50.054Z,62.34
2022-11-25T06:28:31.836Z,62.34
2022-11-25T06:31:31.916Z,62.40
2022-11-25T06:32:35.236Z,62.40
2022-11-25T06:33:31.862Z,62.17
2022-11-25T06:35:31.866Z,62.01
2022-11-25T06:37:31.886Z,62.21
2022-11-25T06:38:31.819Z,62.09
2022-11-25T06:39:31.873Z,61.84
2022-11-25T06:43:31.884Z,61.48
2022-11-25T06:45:31.895Z,61.33
2022-11-25T06:46:31.927Z,61.07
2022-11-25T06:47:32.563Z,61.04
2022-11-25T06:48:31.863Z,61.04
2022-11-25T06:49:31.945Z,60.84
2022-11-25T06:50:31.892Z,60.84
2022-11-25T06:51:31.894Z,60.78
2022-11-25T06:52:31.943Z,60.79
2022-11-25T06:53:31.912Z,60.79
2022-11-25T06:54:31.913Z,60.87
2022-11-25T06:55:31.910Z,61.01
2022-11-25T06:56:31.903Z,61.01
2022-11-25T06:57:31.942Z,61.41
2022-11-25T06:58:35.542Z,61.41
2022-11-25T06:59:31.898Z,61.45
2022-11-25T07:00:31.931Z,61.42
2022-11-25T07:01:31.952Z,61.42
2022-11-25T07:02:38.056Z,61.45
2022-11-25T07:03:31.933Z,61.45
2022-11-25T07:04:31.938Z,61.38
2022-11-25T07:05:31.941Z,61.22
2022-11-25T07:07:32.000Z,61.03
2022-11-25T07:09:31.977Z,61.02
2022-11-25T07:10:31.936Z,61.12
2022-11-25T07:11:31.941Z,61.12
2022-11-25T07:12:31.984Z,60.66
2022-11-25T07:13:31.976Z,60.84
2022-11-25T07:15:32.018Z,60.72
2022-11-25T07:16:31.971Z,60.79
2022-11-25T07:17:31.964Z,60.79
2022-11-25T07:18:31.966Z,60.77
2022-11-25T07:20:31.968Z,60.69
2022-11-25T07:21:31.949Z,60.69
2022-11-25T07:22:31.973Z,60.67
2022-11-25T07:23:32.012Z,60.67
2022-11-25T07:24:31.955Z,60.47
2022-11-25T07:25:31.984Z,60.35
2022-11-25T07:27:31.980Z,60.30
2022-11-25T07:28:32.028Z,60.28
2022-11-25T07:29:58.260Z,60.29
2022-11-25T07:31:22.743Z,60.26
2022-11-25T07:31:33.461Z,60.23
2022-11-25T07:32:32.018Z,60.30
2022-11-25T07:33:32.073Z,60.25
2022-11-25T07:35:32.046Z,60.15
2022-11-25T07:36:32.005Z,60.15
2022-11-25T07:37:31.996Z,60.16
2022-11-25T07:38:32.010Z,60.05
2022-11-25T07:41:32.038Z,60.06
2022-11-25T07:42:31.992Z,60.11
2022-11-25T07:43:32.077Z,60.01
2022-11-25T07:44:31.998Z,59.80
2022-11-25T07:46:32.035Z,59.57
2022-11-25T07:47:32.015Z,59.61
2022-11-25T07:49:32.054Z,59.69
2022-11-25T07:50:32.072Z,59.65
2022-11-25T07:51:32.026Z,59.65
2022-11-25T07:52:32.024Z,59.61
2022-11-25T07:53:32.087Z,59.53
2022-11-25T07:54:32.060Z,59.15
2022-11-25T07:55:32.063Z,59.35
2022-11-25T07:56:32.037Z,59.01
2022-11-25T07:57:32.011Z,59.01
2022-11-25T07:58:32.067Z,58.59
2022-11-25T07:59:32.045Z,58.52
2022-11-25T08:00:32.035Z,58.52
2022-11-25T08:01:32.138Z,58.61
2022-11-25T08:02:32.158Z,58.61
2022-11-25T08:03:32.144Z,58.11
2022-11-25T08:04:32.041Z,58.11
2022-11-25T08:05:32.080Z,57.96
2022-11-25T08:06:32.089Z,57.73
2022-11-25T08:07:36.352Z,57.73
2022-11-25T08:08:32.081Z,57.38
2022-11-25T08:09:32.058Z,57.15
2022-11-25T08:10:32.061Z,56.93
2022-11-25T08:11:32.124Z,56.76
2022-11-25T08:12:32.098Z,56.76
2022-11-25T08:13:32.104Z,56.24
2022-11-25T08:14:32.071Z,56.24
2022-11-25T08:15:32.162Z,55.73
2022-11-25T08:16:32.268Z,55.48
2022-11-25T08:17:32.112Z,55.48
2022-11-25T08:18:32.078Z,55.25
2022-11-25T08:19:32.126Z,55.00
2022-11-25T08:20:32.120Z,55.00
2022-11-25T08:21:32.156Z,54.81
2022-11-25T08:22:32.127Z,54.81
2022-11-25T08:23:32.087Z,54.63
2022-11-25T08:24:32.171Z,54.06
2022-11-25T08:25:32.094Z,53.63
2022-11-25T08:26:32.171Z,53.24
2022-11-25T08:27:32.111Z,52.84
2022-11-25T08:28:32.120Z,52.84
2022-11-25T08:29:32.141Z,52.60
2022-11-25T08:30:32.158Z,52.30
2022-11-25T08:31:32.237Z,52.30
2022-11-25T08:32:32.169Z,52.55
2022-11-25T08:33:32.125Z,52.79
2022-11-25T08:34:32.175Z,52.92
2022-11-25T08:35:32.114Z,52.92
2022-11-25T08:36:32.103Z,52.90
2022-11-25T08:37:32.195Z,52.91
2022-11-25T08:38:32.183Z,53.11
2022-11-25T08:39:52.333Z,53.41
2022-11-25T08:40:32.151Z,53.49
2022-11-25T08:41:32.126Z,53.65
2022-11-25T08:42:32.151Z,53.80
2022-11-25T08:43:32.181Z,54.03
2022-11-25T08:44:32.168Z,53.99
2022-11-25T08:45:32.187Z,53.87
2022-11-25T08:46:32.240Z,53.87
2022-11-25T08:47:33.030Z,53.34
2022-11-25T08:48:32.196Z,53.30
2022-11-25T08:49:37.501Z,53.25
2022-11-25T08:50:32.175Z,53.39
2022-11-25T08:51:32.286Z,53.57
2022-11-25T08:52:32.191Z,53.57
2022-11-25T08:53:32.174Z,53.65
2022-11-25T08:54:32.239Z,53.82
2022-11-25T08:55:32.268Z,53.82
2022-11-25T08:56:32.212Z,53.71
2022-11-25T08:57:32.221Z,53.63
2022-11-25T08:58:32.210Z,53.63
2022-11-25T08:59:32.253Z,53.97
2022-11-25T09:00:32.218Z,53.97
2022-11-25T09:01:32.370Z,54.23
2022-11-25T09:02:32.251Z,54.23
2022-11-25T09:03:32.204Z,54.14
2022-11-25T09:04:32.245Z,54.45
2022-11-25T09:05:32.237Z,54.54
2022-11-25T09:07:33.354Z,54.67
2022-11-25T09:08:32.257Z,54.89
2022-11-25T09:09:32.242Z,55.01
2022-11-25T09:11:32.324Z,55.30
2022-11-25T09:12:32.207Z,55.30
2022-11-25T09:13:32.276Z,55.45
2022-11-25T09:14:32.246Z,55.63
2022-11-25T09:16:32.355Z,55.54
2022-11-25T09:17:32.270Z,55.67
2022-11-25T09:18:32.218Z,55.67
2022-11-25T09:19:32.254Z,55.97
2022-11-25T09:20:32.254Z,55.59
2022-11-25T09:21:32.225Z,55.59
2022-11-25T09:22:32.310Z,55.01
2022-11-25T09:23:32.290Z,55.37
2022-11-25T09:24:32.229Z,55.37
2022-11-25T09:25:32.282Z,55.47
2022-11-25T09:26:32.252Z,55.25
2022-11-25T09:27:32.273Z,55.04
2022-11-25T09:28:32.305Z,55.07
2022-11-25T09:29:32.245Z,55.07
2022-11-25T09:30:32.252Z,54.93
2022-11-25T09:32:32.335Z,53.71
2022-11-25T09:33:32.267Z,53.99
2022-11-25T09:34:32.288Z,53.99
2022-11-25T09:35:32.262Z,54.03
2022-11-25T09:38:32.331Z,54.05
2022-11-25T09:39:32.263Z,54.05
2022-11-25T09:40:32.291Z,54.71
2022-11-25T09:41:32.325Z,54.71
2022-11-25T09:42:32.345Z,54.90
2022-11-25T09:43:32.295Z,54.90
2022-11-25T09:44:32.320Z,54.80
2022-11-25T09:45:32.291Z,54.74
2022-11-25T09:46:32.353Z,54.35
2022-11-25T09:47:32.375Z,54.15
2022-11-25T09:48:32.348Z,54.15
2022-11-25T09:49:32.321Z,54.03
2022-11-25T09:50:32.382Z,53.46
2022-11-25T09:51:32.351Z,53.46
2022-11-25T09:52:32.348Z,53.23
2022-11-25T09:53:32.338Z,53.23
2022-11-25T09:54:32.333Z,52.99
2022-11-25T09:55:32.345Z,53.27
2022-11-25T09:56:32.326Z,53.42
2022-11-25T09:57:32.307Z,53.42
2022-11-25T09:58:32.340Z,53.56
2022-11-25T09:59:32.363Z,53.71
2022-11-25T10:00:32.395Z,53.74
2022-11-25T10:01:32.341Z,53.61
2022-11-25T10:02:32.587Z,53.83
2022-11-25T10:03:32.443Z,53.79
2022-11-25T10:04:32.344Z,53.84
2022-11-25T10:05:32.425Z,53.90
2022-11-25T10:06:32.421Z,53.90
2022-11-25T10:07:32.389Z,54.31
2022-11-25T10:08:32.428Z,54.35
2022-11-25T10:09:32.385Z,54.53
2022-11-25T10:10:32.420Z,54.74
2022-11-25T10:13:32.463Z,55.67
2022-11-25T10:14:32.407Z,55.67
2022-11-25T10:15:32.359Z,55.97
2022-11-25T10:18:32.429Z,56.37
2022-11-25T10:22:32.430Z,57.71
2022-11-25T10:24:34.973Z,58.14
2022-11-25T10:25:32.425Z,57.16
2022-11-25T10:27:32.581Z,57.59
2022-11-25T10:28:32.449Z,57.53
2022-11-25T10:30:32.402Z,57.95
2022-11-25T10:31:32.607Z,57.97
2022-11-25T10:32:32.406Z,57.83
2022-11-25T10:33:32.477Z,57.34
2022-11-25T10:34:32.430Z,57.34
2022-11-25T10:39:32.440Z,57.76
2022-11-25T10:40:32.472Z,57.76
2022-11-25T10:41:32.473Z,58.61
2022-11-25T10:42:32.430Z,59.17
2022-11-25T10:43:32.644Z,59.39
2022-11-25T10:44:32.467Z,59.39
2022-11-25T10:45:32.497Z,59.71
2022-11-25T10:46:56.992Z,60.07
2022-11-25T10:47:32.538Z,60.56
2022-11-25T10:48:32.509Z,60.35
2022-11-25T10:49:32.491Z,60.35
2022-11-25T10:50:32.482Z,60.51
2022-11-25T10:51:32.541Z,60.89
2022-11-25T10:53:32.527Z,60.72
2022-11-25T10:54:32.511Z,60.72
2022-11-25T10:55:32.496Z,59.81
2022-11-25T10:56:32.516Z,60.56
2022-11-25T10:57:32.511Z,60.49
2022-11-25T10:58:32.508Z,60.49
2022-11-25T10:59:32.503Z,60.94
2022-11-25T11:00:32.467Z,60.94
2022-11-25T11:01:32.572Z,60.69
2022-11-25T11:02:32.578Z,61.08
2022-11-25T11:03:32.514Z,61.08
2022-11-25T11:04:32.556Z,60.88
2022-11-25T11:05:32.523Z,60.88
2022-11-25T11:06:32.550Z,61.04
2022-11-25T11:07:32.623Z,60.65
2022-11-25T11:08:32.549Z,60.19
2022-11-25T11:09:32.498Z,60.19
2022-11-25T11:10:32.556Z,59.11
2022-11-25T11:11:32.550Z,59.56
2022-11-25T11:12:32.540Z,59.56
2022-11-25T11:13:32.535Z,59.51
2022-11-25T11:14:32.557Z,59.42
2022-11-25T11:15:32.546Z,59.42
2022-11-25T11:16:32.602Z,59.76
2022-11-25T11:17:36.339Z,59.76
2022-11-25T11:18:32.566Z,59.41
2022-11-25T11:19:32.573Z,59.48
2022-11-25T11:20:14.489Z,59.48
2022-11-25T11:20:32.552Z,59.48
2022-11-25T11:21:32.554Z,59.27
2022-11-25T11:22:32.561Z,58.90
2022-11-25T11:23:32.574Z,59.37
2022-11-25T11:24:32.601Z,59.11
2022-11-25T11:25:32.586Z,59.60
2022-11-25T11:26:32.601Z,59.80
2022-11-25T11:27:32.550Z,59.80
2022-11-25T11:28:32.545Z,59.69
2022-11-25T11:29:32.583Z,59.15
2022-11-25T11:30:32.624Z,59.93
2022-11-25T11:31:32.633Z,59.93
2022-11-25T11:32:32.582Z,60.33
2022-11-25T11:33:32.553Z,60.29
2022-11-25T11:34:32.601Z,60.57
2022-11-25T11:35:35.453Z,60.15
2022-11-25T11:36:32.553Z,60.15
2022-11-25T11:37:32.554Z,60.20
2022-11-25T11:39:32.646Z,58.39
2022-11-25T11:40:32.575Z,58.39
2022-11-25T11:41:32.600Z,59.39
2022-11-25T11:42:32.627Z,58.54
2022-11-25T11:43:32.631Z,59.22
2022-11-25T11:44:32.671Z,58.98
2022-11-25T11:45:32.574Z,58.98
2022-11-25T11:46:32.703Z,59.40
2022-11-25T11:47:32.603Z,59.40
2022-11-25T11:48:32.585Z,58.22
2022-11-25T11:49:32.681Z,58.54
2022-11-25T11:50:32.638Z,58.54
2022-11-25T11:51:32.598Z,58.46
2022-11-25T11:52:32.680Z,58.12
2022-11-25T11:53:32.619Z,58.12
2022-11-25T11:54:32.657Z,56.71
2022-11-25T11:55:32.621Z,56.90
2022-11-25T11:56:35.756Z,56.90
2022-11-25T11:57:32.713Z,56.91
2022-11-25T11:58:32.693Z,56.81
2022-11-25T11:59:32.702Z,56.48
2022-11-25T12:00:32.677Z,56.20
2022-11-25T12:01:32.652Z,56.20
2022-11-25T12:02:32.758Z,55.96
2022-11-25T12:03:32.722Z,55.96
2022-11-25T12:04:32.680Z,56.10
2022-11-25T12:05:32.676Z,56.01
2022-11-25T12:06:32.649Z,55.98
2022-11-25T12:07:32.796Z,56.07
2022-11-25T12:08:32.676Z,56.07
2022-11-25T12:09:32.711Z,55.95
2022-11-25T12:10:32.675Z,56.09
2022-11-25T12:11:32.700Z,56.07
2022-11-25T12:12:32.744Z,56.25
2022-11-25T12:13:32.722Z,56.24
2022-11-25T12:14:32.660Z,56.24
2022-11-25T12:15:32.738Z,56.34
2022-11-25T12:17:32.820Z,56.11
2022-11-25T12:18:32.698Z,56.11
2022-11-25T12:19:32.709Z,56.00
2022-11-25T12:20:32.729Z,55.81
2022-11-25T12:21:35.294Z,55.81
2022-11-25T12:22:32.785Z,55.28
2022-11-25T12:23:32.710Z,55.28
2022-11-25T12:24:32.675Z,55.13
2022-11-25T12:25:32.769Z,55.40
2022-11-25T12:27:32.794Z,55.71
2022-11-25T12:28:32.693Z,55.71
2022-11-25T12:29:32.708Z,55.99
2022-11-25T12:30:32.766Z,55.88
2022-11-25T12:31:32.769Z,55.88
2022-11-25T12:32:32.781Z,55.40
2022-11-25T12:33:32.741Z,55.60
2022-11-25T12:34:32.722Z,55.60
2022-11-25T12:35:32.740Z,55.20
2022-11-25T12:37:32.868Z,55.56
2022-11-25T12:38:32.762Z,55.56
2022-11-25T12:39:32.757Z,55.69
2022-11-25T12:40:32.759Z,56.20
2022-11-25T12:41:32.749Z,56.04
2022-11-25T12:42:32.796Z,55.83
2022-11-25T12:43:32.742Z,55.83
2022-11-25T12:44:32.733Z,55.51
2022-11-25T12:45:32.843Z,55.38
2022-11-25T12:47:32.903Z,55.50
2022-11-25T12:48:32.770Z,55.50
2022-11-25T12:51:32.829Z,55.74
2022-11-25T12:52:32.822Z,55.64
2022-11-25T12:53:32.821Z,55.64
2022-11-25T12:54:32.742Z,55.81
2022-11-25T12:56:32.846Z,55.71
2022-11-25T12:57:32.839Z,55.99
2022-11-25T12:59:32.792Z,55.67
2022-11-25T13:00:41.493Z,55.61
2022-11-25T13:02:33.029Z,55.47
2022-11-25T13:03:32.846Z,55.43
2022-11-25T13:04:32.827Z,55.44
2022-11-25T13:05:40.224Z,55.39
2022-11-25T13:06:32.797Z,54.86
2022-11-25T13:07:32.976Z,54.86
2022-11-25T13:10:32.892Z,55.68
2022-11-25T13:12:33.034Z,55.87
2022-11-25T13:13:33.293Z,55.89
2022-11-25T13:14:33.326Z,55.89
2022-11-25T13:15:33.370Z,56.18
2022-11-25T13:16:33.406Z,56.18
2022-11-25T13:17:33.154Z,56.35
2022-11-25T13:18:32.864Z,56.35
2022-11-25T13:19:32.865Z,56.84
2022-11-25T13:20:32.917Z,57.44
2022-11-25T13:21:32.833Z,57.71
2022-11-25T13:22:32.842Z,57.93
2022-11-25T13:23:32.833Z,57.93
2022-11-25T13:24:32.860Z,57.75
2022-11-25T13:25:32.859Z,57.59
2022-11-25T13:26:32.852Z,57.81
2022-11-25T13:27:32.878Z,57.76
2022-11-25T13:28:32.856Z,57.88
2022-11-25T13:29:32.849Z,57.88
2022-11-25T13:30:32.935Z,58.47
2022-11-25T13:31:32.973Z,58.47
2022-11-25T13:32:32.920Z,58.44
2022-11-25T13:33:32.886Z,58.44
2022-11-25T13:34:33.677Z,58.52
2022-11-25T13:35:32.891Z,58.57
2022-11-25T13:36:32.899Z,58.72
2022-11-25T13:37:36.353Z,58.94
2022-11-25T13:38:32.930Z,58.75
2022-11-25T13:39:32.903Z,58.75
2022-11-25T13:40:32.907Z,58.74
2022-11-25T13:41:32.899Z,58.74
2022-11-25T13:42:32.937Z,59.11
2022-11-25T13:43:32.913Z,59.49
2022-11-25T13:45:33.067Z,59.36
2022-11-25T13:46:32.891Z,59.36
2022-11-25T13:47:32.887Z,59.47
2022-11-25T13:48:32.929Z,59.78
2022-11-25T13:49:32.936Z,59.78
2022-11-25T13:50:55.335Z,59.69
2022-11-25T13:51:32.939Z,59.69
2022-11-25T13:52:32.957Z,59.61
2022-11-25T13:53:32.927Z,59.69
2022-11-25T13:54:32.951Z,59.88
2022-11-25T13:55:32.949Z,59.87
2022-11-25T13:56:32.930Z,60.05
2022-11-25T13:57:32.989Z,60.05
2022-11-25T13:58:32.984Z,60.27
2022-11-25T13:59:32.928Z,60.74
2022-11-25T14:00:33.000Z,61.13
2022-11-25T14:01:32.912Z,61.13
2022-11-25T14:02:33.111Z,61.25
2022-11-25T14:03:33.073Z,61.55
2022-11-25T14:04:33.150Z,61.55
2022-11-25T14:05:32.960Z,61.89
2022-11-25T14:06:32.990Z,61.89
2022-11-25T14:07:33.019Z,62.22
2022-11-25T14:08:32.984Z,62.13
2022-11-25T14:09:32.976Z,62.13
2022-11-25T14:10:33.017Z,62.58
2022-11-25T14:11:32.940Z,62.58
2022-11-25T14:12:32.959Z,62.71
2022-11-25T14:13:32.987Z,62.54
2022-11-25T14:14:33.001Z,62.57
2022-11-25T14:15:32.994Z,62.57
2022-11-25T14:17:32.995Z,62.50
2022-11-25T14:19:12.117Z,62.45
2022-11-25T14:19:51.300Z,62.55
2022-11-25T14:20:33.018Z,62.55
2022-11-25T14:22:32.970Z,62.74
2022-11-25T14:23:33.064Z,62.50
2022-11-25T14:25:33.043Z,62.64
2022-11-25T14:26:49.208Z,62.87
2022-11-25T14:27:33.037Z,63.22
2022-11-25T14:28:33.042Z,63.20
2022-11-25T14:29:33.053Z,63.35